Ukiah, California
Current Conditions -  °F | °C
As of 3:56 AM on Saturday 01 Nov 2014 (Local Time) from KUKI Reporting Station
Clear Clear  
Wind Chill:   Ceiling: Unl
Heat Index:   Visibility: 10mi
Dew Point:   Wind: 3mph
Humidity: 90%   Direction: 240°WSW
Pressure: 29.77"   Gusts: NA
Location:  39.15°N, 123.2°W
Report Text: KUKI 011056Z AUTO 24003KT 10SM CLR 08/07 A2977 RMK AO2 SLP075 T00830067
Loading
Personal Weather Stations






























Interactive Weather Map
Tropical Storm Tracking
New forecast layout! Learn more

10-Day Weather Forecast

Advertisements
Track Severe Weather on mobile